Thunder radar more information blitzortung!


Rain radar more information rain snow radar


Equipment we use:

Davis VP2

Weather Display

BareMetal


Nearby METAR Reports

   
CYAZ - Tofino, BC
Updated: 10-20-2018 17:00
Partly Cloudy  
Partly Cloudy  
   Wind: varies 3.7 km/h
Wind: varies 3.7 km/h
Temperature: 13°C
Dew Point: 10°C
Humidity: 82%
Barometer: 1019.3 hPa
Clouds: Partly Cloudy
Visibility: 24 km
Cloud details: Partly Cloudy 7620 m
CYAZ 210000Z VRB02KT 15SM SCT250 13/10 A3010 RMK CI3 FG DIST OFSHR SLP195
CYHE - Hope,BC
Updated: 10-20-2018 17:00
Clear  
Clear  
   Wind: SW 9.3 km/h
Wind: SW 9.3 km/h
Temperature: 11°C
Dew Point: 6°C
Humidity: 72%
Barometer: 1018.6 hPa
Clouds: Clear
Visibility: 15 km
Cloud details: Clear
CYHE 210000Z AUTO 22005KT 9SM CLR 11/06 A3008 RMK SLP189
CYYT - St. John's, NL
Updated: 10-20-2018 17:00
Overcast  
Overcast  
   Wind: South 55.6 km/h<br />Gust to 55.6 km/h
Wind: South 55.6 km/h
Gust to 55.6 km/h
Temperature: 9°C
Wind Chill: 4°C
Dew Point: 8°C
Humidity: 94%
Barometer: 1019 hPa
Clouds: Overcast
Visibility: 24 km
Cloud details: Overcast 304.8 m
CYYT 210000Z 19030G42KT 15SM OVC010 09/08 A3009 RMK SC8 SLP197

Script developed by  Saratoga-weather.org Adapted for the template by  Weerstation Leuven